sensor_id;sensor_type;location;lat;lon;timestamp;pressure;altitude;pressure_sealevel;temperature;humidity
59435;BME280;45241;49.768;8.636;2022-10-26T00:01:39;100145.63;;;16.26;96.39
59435;BME280;45241;49.768;8.636;2022-10-26T00:04:04;100148.97;;;15.61;100.00
59435;BME280;45241;49.768;8.636;2022-10-26T00:06:29;100146.09;;;16.23;96.74
59435;BME280;45241;49.768;8.636;2022-10-26T00:08:55;100144.66;;;16.62;94.21
59435;BME280;45241;49.768;8.636;2022-10-26T00:11:21;100144.72;;;16.43;94.68
59435;BME280;45241;49.768;8.636;2022-10-26T00:13:46;100148.69;;;16.71;93.84
59435;BME280;45241;49.768;8.636;2022-10-26T00:18:37;100138.22;;;16.33;95.18
59435;BME280;45241;49.768;8.636;2022-10-26T00:21:04;100141.19;;;16.43;95.82
59435;BME280;45241;49.768;8.636;2022-10-26T00:23:29;100134.41;;;15.62;100.00
59435;BME280;45241;49.768;8.636;2022-10-26T00:25:57;100135.19;;;16.41;96.92
59435;BME280;45241;49.768;8.636;2022-10-26T00:28:22;100151.72;;;15.18;100.00
59435;BME280;45241;49.768;8.636;2022-10-26T00:30:47;100145.94;;;15.51;100.00
59435;BME280;45241;49.768;8.636;2022-10-26T00:33:12;100144.69;;;16.32;98.57
59435;BME280;45241;49.768;8.636;2022-10-26T00:35:38;100151.91;;;16.38;98.09
59435;BME280;45241;49.768;8.636;2022-10-26T00:38:03;100168.97;;;15.35;100.00
59435;BME280;45241;49.768;8.636;2022-10-26T00:40:28;100172.88;;;15.94;100.00
59435;BME280;45241;49.768;8.636;2022-10-26T00:42:54;100173.72;;;16.25;98.94
59435;BME280;45241;49.768;8.636;2022-10-26T00:45:20;100183.00;;;16.59;96.79
59435;BME280;45241;49.768;8.636;2022-10-26T00:47:50;100184.44;;;16.61;96.39
59435;BME280;45241;49.768;8.636;2022-10-26T00:50:20;100166.38;;;16.43;97.44
59435;BME280;45241;49.768;8.636;2022-10-26T00:52:47;100152.69;;;15.23;100.00
59435;BME280;45241;49.768;8.636;2022-10-26T00:55:12;100157.38;;;15.71;100.00
59435;BME280;45241;49.768;8.636;2022-10-26T00:57:37;100171.47;;;14.93;100.00
59435;BME280;45241;49.768;8.636;2022-10-26T01:00:04;100170.94;;;16.01;100.00
59435;BME280;45241;49.768;8.636;2022-10-26T01:02:30;100165.66;;;16.36;99.28
59435;BME280;45241;49.768;8.636;2022-10-26T01:04:55;100174.44;;;15.28;100.00
59435;BME280;45241;49.768;8.636;2022-10-26T01:07:20;100192.75;;;15.26;100.00
59435;BME280;45241;49.768;8.636;2022-10-26T01:09:46;100187.91;;;15.90;100.00
59435;BME280;45241;49.768;8.636;2022-10-26T01:12:12;100182.13;;;16.35;99.48
59435;BME280;45241;49.768;8.636;2022-10-26T01:14:37;100163.81;;;16.49;99.09
59435;BME280;45241;49.768;8.636;2022-10-26T01:22:19;100156.03;;;16.40;99.71
59435;BME280;45241;49.768;8.636;2022-10-26T01:24:50;100162.00;;;16.01;100.00
59435;BME280;45241;49.768;8.636;2022-10-26T01:27:27;100158.50;;;15.64;100.00
59435;BME280;45241;49.768;8.636;2022-10-26T01:32:39;100158.81;;;15.74;100.00
59435;BME280;45241;49.768;8.636;2022-10-26T01:35:09;100143.59;;;16.51;99.07
59435;BME280;45241;49.768;8.636;2022-10-26T01:37:38;100133.94;;;16.55;98.95
59435;BME280;45241;49.768;8.636;2022-10-26T01:40:20;100128.94;;;16.29;100.00
59435;BME280;45241;49.768;8.636;2022-10-26T01:42:49;100139.78;;;16.40;99.83
59435;BME280;45241;49.768;8.636;2022-10-26T01:45:16;100136.84;;;16.00;100.00
59435;BME280;45241;49.768;8.636;2022-10-26T01:47:42;100134.06;;;15.59;100.00
59435;BME280;45241;49.768;8.636;2022-10-26T01:50:08;100140.41;;;15.64;100.00
59435;BME280;45241;49.768;8.636;2022-10-26T01:52:34;100125.09;;;16.36;100.00
59435;BME280;45241;49.768;8.636;2022-10-26T01:55:02;100126.38;;;16.45;99.56
59435;BME280;45241;49.768;8.636;2022-10-26T01:57:28;100115.88;;;16.26;99.96
59435;BME280;45241;49.768;8.636;2022-10-26T02:00:08;100114.06;;;16.08;100.00
59435;BME280;45241;49.768;8.636;2022-10-26T02:02:57;100111.00;;;16.58;99.67
59435;BME280;45241;49.768;8.636;2022-10-26T02:08:08;100112.66;;;16.17;100.00
59435;BME280;45241;49.768;8.636;2022-10-26T02:10:54;100122.31;;;15.28;100.00
59435;BME280;45241;49.768;8.636;2022-10-26T02:18:46;100115.56;;;16.45;100.00
59435;BME280;45241;49.768;8.636;2022-10-26T02:21:16;100121.38;;;16.61;99.50
59435;BME280;45241;49.768;8.636;2022-10-26T02:23:44;100121.22;;;16.56;99.95
59435;BME280;45241;49.768;8.636;2022-10-26T02:26:10;100122.75;;;16.52;99.86
59435;BME280;45241;49.768;8.636;2022-10-26T02:28:38;100124.72;;;15.54;100.00
59435;BME280;45241;49.768;8.636;2022-10-26T02:31:06;100117.75;;;16.25;100.00
59435;BME280;45241;49.768;8.636;2022-10-26T02:33:32;100116.69;;;16.26;100.00
59435;BME280;45241;49.768;8.636;2022-10-26T02:36:01;100118.16;;;16.40;100.00
59435;BME280;45241;49.768;8.636;2022-10-26T02:38:28;100104.47;;;16.24;100.00
59435;BME280;45241;49.768;8.636;2022-10-26T02:40:54;100114.06;;;16.50;99.91
59435;BME280;45241;49.768;8.636;2022-10-26T02:43:20;100119.38;;;15.84;100.00
59435;BME280;45241;49.768;8.636;2022-10-26T02:45:51;100110.63;;;16.42;100.00
59435;BME280;45241;49.768;8.636;2022-10-26T02:48:17;100102.19;;;16.62;99.84
59435;BME280;45241;49.768;8.636;2022-10-26T02:55:39;100091.59;;;16.61;100.00
59435;BME280;45241;49.768;8.636;2022-10-26T02:58:08;100085.94;;;16.51;100.00
59435;BME280;45241;49.768;8.636;2022-10-26T03:00:36;100083.06;;;16.22;100.00
59435;BME280;45241;49.768;8.636;2022-10-26T03:03:02;100088.28;;;16.59;100.00
59435;BME280;45241;49.768;8.636;2022-10-26T03:05:29;100087.50;;;15.38;100.00
59435;BME280;45241;49.768;8.636;2022-10-26T03:07:56;100083.66;;;15.82;100.00
59435;BME280;45241;49.768;8.636;2022-10-26T03:10:22;100081.00;;;16.48;100.00
59435;BME280;45241;49.768;8.636;2022-10-26T03:12:47;100087.84;;;16.62;100.00
59435;BME280;45241;49.768;8.636;2022-10-26T03:15:12;100097.13;;;16.66;100.00
59435;BME280;45241;49.768;8.636;2022-10-26T03:17:38;100094.19;;;15.36;100.00
59435;BME280;45241;49.768;8.636;2022-10-26T03:20:03;100101.78;;;14.84;100.00
59435;BME280;45241;49.768;8.636;2022-10-26T03:22:28;100105.75;;;15.91;100.00
59435;BME280;45241;49.768;8.636;2022-10-26T03:24:53;100108.09;;;14.78;100.00
59435;BME280;45241;49.768;8.636;2022-10-26T03:27:19;100117.56;;;15.42;100.00
59435;BME280;45241;49.768;8.636;2022-10-26T03:29:44;100125.19;;;16.00;100.00
59435;BME280;45241;49.768;8.636;2022-10-26T03:32:09;100131.53;;;15.39;100.00
59435;BME280;45241;49.768;8.636;2022-10-26T03:34:34;100129.91;;;16.04;100.00
59435;BME280;45241;49.768;8.636;2022-10-26T03:36:59;100128.78;;;16.12;100.00
59435;BME280;45241;49.768;8.636;2022-10-26T03:39:25;100147.94;;;15.62;100.00
59435;BME280;45241;49.768;8.636;2022-10-26T03:41:50;100151.22;;;15.64;100.00
59435;BME280;45241;49.768;8.636;2022-10-26T03:44:15;100156.97;;;14.88;100.00
59435;BME280;45241;49.768;8.636;2022-10-26T03:46:40;100176.41;;;15.40;100.00
59435;BME280;45241;49.768;8.636;2022-10-26T03:49:06;100177.94;;;15.91;100.00
59435;BME280;45241;49.768;8.636;2022-10-26T03:51:31;100185.63;;;16.05;100.00
59435;BME280;45241;49.768;8.636;2022-10-26T03:53:56;100178.31;;;16.24;100.00
59435;BME280;45241;49.768;8.636;2022-10-26T03:56:21;100169.66;;;16.34;99.52
59435;BME280;45241;49.768;8.636;2022-10-26T03:58:46;100168.44;;;16.30;100.00
59435;BME280;45241;49.768;8.636;2022-10-26T04:01:11;100164.25;;;16.34;99.84
59435;BME280;45241;49.768;8.636;2022-10-26T04:03:37;100154.22;;;16.23;100.00
59435;BME280;45241;49.768;8.636;2022-10-26T04:06:02;100144.03;;;16.36;100.00
59435;BME280;45241;49.768;8.636;2022-10-26T04:08:28;100139.94;;;16.15;100.00
59435;BME280;45241;49.768;8.636;2022-10-26T04:10:53;100136.78;;;16.19;100.00
59435;BME280;45241;49.768;8.636;2022-10-26T04:13:18;100123.75;;;16.27;100.00
59435;BME280;45241;49.768;8.636;2022-10-26T04:15:43;100106.56;;;16.10;100.00
59435;BME280;45241;49.768;8.636;2022-10-26T04:18:09;100103.75;;;16.28;100.00
59435;BME280;45241;49.768;8.636;2022-10-26T04:20:37;100094.09;;;16.09;100.00
59435;BME280;45241;49.768;8.636;2022-10-26T04:23:03;100077.66;;;16.22;100.00
59435;BME280;45241;49.768;8.636;2022-10-26T04:25:29;100080.16;;;15.64;100.00
59435;BME280;45241;49.768;8.636;2022-10-26T04:27:55;100084.38;;;15.60;100.00
59435;BME280;45241;49.768;8.636;2022-10-26T04:30:20;100088.75;;;14.99;100.00
59435;BME280;45241;49.768;8.636;2022-10-26T04:32:45;100087.13;;;15.71;100.00
59435;BME280;45241;49.768;8.636;2022-10-26T04:35:10;100080.75;;;15.47;100.00
59435;BME280;45241;49.768;8.636;2022-10-26T04:37:35;100076.44;;;15.76;100.00
59435;BME280;45241;49.768;8.636;2022-10-26T04:40:01;100084.06;;;15.31;100.00
59435;BME280;45241;49.768;8.636;2022-10-26T04:42:26;100093.88;;;15.92;100.00
59435;BME280;45241;49.768;8.636;2022-10-26T04:44:51;100092.19;;;15.79;100.00
59435;BME280;45241;49.768;8.636;2022-10-26T04:47:16;100099.88;;;15.94;100.00
59435;BME280;45241;49.768;8.636;2022-10-26T04:49:41;100105.19;;;14.97;100.00
59435;BME280;45241;49.768;8.636;2022-10-26T04:52:07;100114.63;;;14.88;100.00
59435;BME280;45241;49.768;8.636;2022-10-26T04:54:32;100119.84;;;15.45;100.00
59435;BME280;45241;49.768;8.636;2022-10-26T04:56:57;100117.44;;;15.73;100.00
59435;BME280;45241;49.768;8.636;2022-10-26T04:59:23;100121.16;;;15.91;99.63
59435;BME280;45241;49.768;8.636;2022-10-26T05:01:48;100116.56;;;14.81;100.00
59435;BME280;45241;49.768;8.636;2022-10-26T05:04:13;100125.47;;;15.43;100.00
59435;BME280;45241;49.768;8.636;2022-10-26T05:06:38;100125.13;;;15.58;100.00
59435;BME280;45241;49.768;8.636;2022-10-26T05:09:03;100124.13;;;15.71;100.00
59435;BME280;45241;49.768;8.636;2022-10-26T05:11:29;100122.50;;;15.70;99.54
59435;BME280;45241;49.768;8.636;2022-10-26T05:13:54;100117.09;;;15.70;99.45
59435;BME280;45241;49.768;8.636;2022-10-26T05:16:19;100129.56;;;14.91;100.00
59435;BME280;45241;49.768;8.636;2022-10-26T05:18:46;100118.63;;;15.41;100.00
59435;BME280;45241;49.768;8.636;2022-10-26T05:21:11;100111.16;;;15.61;100.00
59435;BME280;45241;49.768;8.636;2022-10-26T05:23:43;100106.88;;;15.72;99.50
59435;BME280;45241;49.768;8.636;2022-10-26T05:26:08;100114.91;;;14.55;100.00
59435;BME280;45241;49.768;8.636;2022-10-26T05:28:33;100120.53;;;14.29;100.00
59435;BME280;45241;49.768;8.636;2022-10-26T05:30:58;100119.09;;;15.38;100.00
59435;BME280;45241;49.768;8.636;2022-10-26T05:33:24;100110.91;;;15.63;99.87
59435;BME280;45241;49.768;8.636;2022-10-26T05:35:52;100115.78;;;15.72;99.24
59435;BME280;45241;49.768;8.636;2022-10-26T05:38:17;100105.75;;;15.61;100.00
59435;BME280;45241;49.768;8.636;2022-10-26T05:40:49;100110.91;;;15.63;99.78
59435;BME280;45241;49.768;8.636;2022-10-26T05:43:14;100105.41;;;15.88;98.79
59435;BME280;45241;49.768;8.636;2022-10-26T05:45:39;100110.94;;;15.93;97.89
59435;BME280;45241;49.768;8.636;2022-10-26T05:48:05;100108.22;;;15.63;100.00
59435;BME280;45241;49.768;8.636;2022-10-26T05:50:30;100117.50;;;15.85;98.82
59435;BME280;45241;49.768;8.636;2022-10-26T05:52:55;100111.63;;;15.88;98.38
59435;BME280;45241;49.768;8.636;2022-10-26T05:55:20;100124.03;;;15.77;99.95
59435;BME280;45241;49.768;8.636;2022-10-26T05:57:46;100131.97;;;14.99;100.00
59435;BME280;45241;49.768;8.636;2022-10-26T06:00:15;100135.59;;;15.66;100.00
59435;BME280;45241;49.768;8.636;2022-10-26T06:05:06;100149.94;;;15.30;100.00
59435;BME280;45241;49.768;8.636;2022-10-26T06:07:35;100163.47;;;15.05;100.00
59435;BME280;45241;49.768;8.636;2022-10-26T06:10:00;100163.34;;;15.18;100.00
59435;BME280;45241;49.768;8.636;2022-10-26T06:12:26;100163.44;;;15.67;100.00
59435;BME280;45241;49.768;8.636;2022-10-26T06:14:51;100166.78;;;15.69;100.00
59435;BME280;45241;49.768;8.636;2022-10-26T06:20:02;100174.03;;;15.68;100.00
59435;BME280;45241;49.768;8.636;2022-10-26T06:25:22;100190.97;;;14.95;100.00
59435;BME280;45241;49.768;8.636;2022-10-26T06:27:52;100198.06;;;15.58;100.00
59435;BME280;45241;49.768;8.636;2022-10-26T06:30:20;100203.25;;;15.60;100.00
59435;BME280;45241;49.768;8.636;2022-10-26T06:32:47;100201.00;;;15.57;100.00
59435;BME280;45241;49.768;8.636;2022-10-26T06:37:38;100195.34;;;15.76;100.00
59435;BME280;45241;49.768;8.636;2022-10-26T06:40:06;100192.19;;;15.43;100.00
59435;BME280;45241;49.768;8.636;2022-10-26T06:42:31;100193.63;;;15.64;100.00
59435;BME280;45241;49.768;8.636;2022-10-26T06:44:57;100187.06;;;15.16;100.00
59435;BME280;45241;49.768;8.636;2022-10-26T06:50:02;100197.47;;;15.56;100.00
59435;BME280;45241;49.768;8.636;2022-10-26T06:52:38;100208.88;;;15.58;100.00
59435;BME280;45241;49.768;8.636;2022-10-26T06:55:06;100198.66;;;15.97;100.00
59435;BME280;45241;49.768;8.636;2022-10-26T06:57:37;100206.03;;;15.03;100.00
59435;BME280;45241;49.768;8.636;2022-10-26T07:00:07;100202.75;;;15.44;100.00
59435;BME280;45241;49.768;8.636;2022-10-26T07:02:35;100206.84;;;15.28;100.00
59435;BME280;45241;49.768;8.636;2022-10-26T07:05:00;100206.38;;;16.11;100.00
59435;BME280;45241;49.768;8.636;2022-10-26T07:07:26;100209.75;;;16.07;100.00
59435;BME280;45241;49.768;8.636;2022-10-26T07:09:52;100215.47;;;16.47;99.60
59435;BME280;45241;49.768;8.636;2022-10-26T07:12:17;100222.78;;;16.28;100.00
59435;BME280;45241;49.768;8.636;2022-10-26T07:14:42;100214.47;;;16.71;98.79
59435;BME280;45241;49.768;8.636;2022-10-26T07:17:08;100220.81;;;16.35;100.00
59435;BME280;45241;49.768;8.636;2022-10-26T07:19:33;100223.00;;;16.57;100.00
59435;BME280;45241;49.768;8.636;2022-10-26T07:21:58;100222.81;;;17.12;98.81
59435;BME280;45241;49.768;8.636;2022-10-26T07:24:24;100221.81;;;16.83;100.00
59435;BME280;45241;49.768;8.636;2022-10-26T07:26:50;100226.47;;;17.41;94.47
59435;BME280;45241;49.768;8.636;2022-10-26T07:29:15;100223.94;;;17.62;94.54
59435;BME280;45241;49.768;8.636;2022-10-26T07:31:42;100229.03;;;17.71;94.00
59435;BME280;45241;49.768;8.636;2022-10-26T07:34:07;100233.41;;;17.48;97.79
59435;BME280;45241;49.768;8.636;2022-10-26T07:36:32;100239.06;;;17.58;95.69
59435;BME280;45241;49.768;8.636;2022-10-26T07:39:00;100244.13;;;17.90;92.71
59435;BME280;45241;49.768;8.636;2022-10-26T07:41:25;100244.47;;;17.94;91.04
59435;BME280;45241;49.768;8.636;2022-10-26T07:43:51;100251.63;;;18.00;90.26
59435;BME280;45241;49.768;8.636;2022-10-26T07:46:16;100253.00;;;18.14;90.35
59435;BME280;45241;49.768;8.636;2022-10-26T07:48:42;100263.75;;;18.09;91.23
59435;BME280;45241;49.768;8.636;2022-10-26T07:51:07;100268.56;;;18.30;88.55
59435;BME280;45241;49.768;8.636;2022-10-26T07:53:32;100270.56;;;18.23;88.68
59435;BME280;45241;49.768;8.636;2022-10-26T07:55:58;100272.66;;;18.33;87.27
59435;BME280;45241;49.768;8.636;2022-10-26T07:58:23;100273.16;;;18.30;88.48
59435;BME280;45241;49.768;8.636;2022-10-26T08:00:50;100263.50;;;18.50;86.58
59435;BME280;45241;49.768;8.636;2022-10-26T08:03:16;100266.00;;;18.40;88.53
59435;BME280;45241;49.768;8.636;2022-10-26T08:05:41;100272.22;;;18.53;87.00
59435;BME280;45241;49.768;8.636;2022-10-26T08:08:06;100268.50;;;18.70;87.66
59435;BME280;45241;49.768;8.636;2022-10-26T08:10:31;100265.97;;;18.52;89.17
59435;BME280;45241;49.768;8.636;2022-10-26T08:12:56;100274.28;;;18.45;92.63
59435;BME280;45241;49.768;8.636;2022-10-26T08:15:22;100265.97;;;18.81;88.81
59435;BME280;45241;49.768;8.636;2022-10-26T08:17:47;100271.97;;;18.54;96.06
59435;BME280;45241;49.768;8.636;2022-10-26T08:20:12;100276.72;;;18.75;92.75
59435;BME280;45241;49.768;8.636;2022-10-26T08:22:37;100268.59;;;18.47;95.31
59435;BME280;45241;49.768;8.636;2022-10-26T08:25:03;100276.22;;;18.22;98.38
59435;BME280;45241;49.768;8.636;2022-10-26T08:27:28;100282.75;;;18.09;97.50
59435;BME280;45241;49.768;8.636;2022-10-26T08:29:53;100275.38;;;18.61;92.78
59435;BME280;45241;49.768;8.636;2022-10-26T08:32:18;100287.25;;;18.84;90.61
59435;BME280;45241;49.768;8.636;2022-10-26T08:34:43;100292.19;;;18.87;90.63
59435;BME280;45241;49.768;8.636;2022-10-26T08:37:09;100289.41;;;18.98;89.78
59435;BME280;45241;49.768;8.636;2022-10-26T08:39:34;100288.38;;;18.88;88.56
59435;BME280;45241;49.768;8.636;2022-10-26T08:42:45;100282.91;;;18.99;87.82
59435;BME280;45241;49.768;8.636;2022-10-26T08:44:45;100286.94;;;18.97;88.08
59435;BME280;45241;49.768;8.636;2022-10-26T08:52:36;100291.06;;;19.16;85.49
59435;BME280;45241;49.768;8.636;2022-10-26T08:55:02;100293.63;;;19.40;83.97
59435;BME280;45241;49.768;8.636;2022-10-26T08:57:38;100299.38;;;19.43;83.35
59435;BME280;45241;49.768;8.636;2022-10-26T09:00:06;100298.31;;;19.78;82.36
59435;BME280;45241;49.768;8.636;2022-10-26T09:02:35;100294.09;;;20.09;80.90
59435;BME280;45241;49.768;8.636;2022-10-26T09:05:00;100302.31;;;19.92;80.45
59435;BME280;45241;49.768;8.636;2022-10-26T09:07:30;100290.66;;;19.96;80.71
59435;BME280;45241;49.768;8.636;2022-10-26T09:15:00;100313.19;;;19.92;79.97
59435;BME280;45241;49.768;8.636;2022-10-26T09:17:31;100308.00;;;19.90;79.27
59435;BME280;45241;49.768;8.636;2022-10-26T09:22:38;100315.34;;;19.73;80.85
59435;BME280;45241;49.768;8.636;2022-10-26T09:25:13;100325.41;;;19.89;79.88
59435;BME280;45241;49.768;8.636;2022-10-26T09:27:42;100335.19;;;19.57;83.36
59435;BME280;45241;49.768;8.636;2022-10-26T09:30:12;100331.50;;;19.63;81.96
59435;BME280;45241;49.768;8.636;2022-10-26T09:32:39;100340.59;;;19.85;81.84
59435;BME280;45241;49.768;8.636;2022-10-26T09:35:17;100338.09;;;19.84;80.77
59435;BME280;45241;49.768;8.636;2022-10-26T09:37:45;100339.72;;;19.68;82.99
59435;BME280;45241;49.768;8.636;2022-10-26T09:40:23;100339.06;;;19.94;81.79
59435;BME280;45241;49.768;8.636;2022-10-26T09:42:53;100333.16;;;19.64;82.66
59435;BME280;45241;49.768;8.636;2022-10-26T09:45:20;100337.97;;;19.74;81.56
59435;BME280;45241;49.768;8.636;2022-10-26T09:47:49;100342.13;;;19.81;81.07
59435;BME280;45241;49.768;8.636;2022-10-26T09:50:21;100337.72;;;20.14;80.67
59435;BME280;45241;49.768;8.636;2022-10-26T09:52:48;100343.44;;;19.95;82.56
59435;BME280;45241;49.768;8.636;2022-10-26T09:55:13;100344.56;;;20.38;79.46
59435;BME280;45241;49.768;8.636;2022-10-26T09:57:40;100349.56;;;20.46;78.70
59435;BME280;45241;49.768;8.636;2022-10-26T10:00:11;100349.94;;;20.55;77.04
59435;BME280;45241;49.768;8.636;2022-10-26T10:02:40;100361.78;;;20.88;77.53
59435;BME280;45241;49.768;8.636;2022-10-26T10:07:45;100355.97;;;20.79;77.44
59435;BME280;45241;49.768;8.636;2022-10-26T10:10:18;100362.88;;;21.13;77.33
59435;BME280;45241;49.768;8.636;2022-10-26T10:12:43;100368.81;;;21.05;76.53
59435;BME280;45241;49.768;8.636;2022-10-26T10:15:17;100369.38;;;21.07;77.97
59435;BME280;45241;49.768;8.636;2022-10-26T10:17:52;100370.47;;;20.41;79.11
59435;BME280;45241;49.768;8.636;2022-10-26T10:20:21;100385.00;;;20.68;79.48
59435;BME280;45241;49.768;8.636;2022-10-26T10:22:56;100391.31;;;20.96;77.50
59435;BME280;45241;49.768;8.636;2022-10-26T10:25:30;100379.13;;;21.03;78.24
59435;BME280;45241;49.768;8.636;2022-10-26T10:27:56;100382.00;;;20.92;78.32
59435;BME280;45241;49.768;8.636;2022-10-26T10:30:23;100383.53;;;20.82;78.27
59435;BME280;45241;49.768;8.636;2022-10-26T10:33:04;100389.63;;;21.17;76.72
59435;BME280;45241;49.768;8.636;2022-10-26T10:35:30;100395.22;;;21.05;78.65
59435;BME280;45241;49.768;8.636;2022-10-26T10:37:55;100399.59;;;21.06;76.99
59435;BME280;45241;49.768;8.636;2022-10-26T10:40:27;100406.88;;;21.27;77.73
59435;BME280;45241;49.768;8.636;2022-10-26T10:43:05;100413.94;;;21.50;77.27
59435;BME280;45241;49.768;8.636;2022-10-26T10:45:34;100427.72;;;21.38;77.74
59435;BME280;45241;49.768;8.636;2022-10-26T10:50:38;100439.63;;;21.54;77.69
59435;BME280;45241;49.768;8.636;2022-10-26T10:53:13;100426.16;;;21.42;79.86
59435;BME280;45241;49.768;8.636;2022-10-26T10:55:40;100418.66;;;21.55;77.88
59435;BME280;45241;49.768;8.636;2022-10-26T10:58:13;100426.19;;;21.48;77.77
59435;BME280;45241;49.768;8.636;2022-10-26T11:00:43;100425.75;;;21.29;78.74
59435;BME280;45241;49.768;8.636;2022-10-26T11:05:59;100423.94;;;21.98;79.30
59435;BME280;45241;49.768;8.636;2022-10-26T11:08:29;100428.00;;;21.96;78.69
59435;BME280;45241;49.768;8.636;2022-10-26T11:13:23;100426.72;;;22.46;75.81
59435;BME280;45241;49.768;8.636;2022-10-26T11:15:51;100438.81;;;22.65;75.55
59435;BME280;45241;49.768;8.636;2022-10-26T11:18:40;100432.69;;;23.00;74.43
59435;BME280;45241;49.768;8.636;2022-10-26T11:21:26;100439.56;;;23.13;72.41
59435;BME280;45241;49.768;8.636;2022-10-26T11:24:01;100430.38;;;22.67;74.40
59435;BME280;45241;49.768;8.636;2022-10-26T11:31:50;100437.06;;;23.01;72.98
59435;BME280;45241;49.768;8.636;2022-10-26T11:36:44;100445.88;;;22.51;76.12
59435;BME280;45241;49.768;8.636;2022-10-26T11:39:15;100448.25;;;22.37;75.80
59435;BME280;45241;49.768;8.636;2022-10-26T11:41:48;100453.88;;;22.25;77.42
59435;BME280;45241;49.768;8.636;2022-10-26T11:44:21;100458.78;;;22.23;77.59
59435;BME280;45241;49.768;8.636;2022-10-26T11:46:52;100461.97;;;22.47;76.90
59435;BME280;45241;49.768;8.636;2022-10-26T11:49:21;100453.88;;;22.30;77.89
59435;BME280;45241;49.768;8.636;2022-10-26T11:54:36;100458.72;;;22.18;79.68
59435;BME280;45241;49.768;8.636;2022-10-26T11:57:02;100452.16;;;22.14;77.90
59435;BME280;45241;49.768;8.636;2022-10-26T11:59:29;100449.91;;;22.43;77.86
59435;BME280;45241;49.768;8.636;2022-10-26T12:02:01;100449.75;;;22.60;77.64
59435;BME280;45241;49.768;8.636;2022-10-26T12:04:29;100457.28;;;22.43;77.78
59435;BME280;45241;49.768;8.636;2022-10-26T12:06:55;100453.06;;;22.30;77.23
59435;BME280;45241;49.768;8.636;2022-10-26T12:09:25;100449.13;;;22.48;77.18
59435;BME280;45241;49.768;8.636;2022-10-26T12:11:56;100450.41;;;22.35;77.78
59435;BME280;45241;49.768;8.636;2022-10-26T12:14:36;100443.59;;;22.38;77.89
59435;BME280;45241;49.768;8.636;2022-10-26T12:17:05;100453.09;;;22.77;77.49
59435;BME280;45241;49.768;8.636;2022-10-26T12:22:00;100461.50;;;22.66;78.24
59435;BME280;45241;49.768;8.636;2022-10-26T12:24:27;100457.16;;;22.70;77.13
59435;BME280;45241;49.768;8.636;2022-10-26T12:26:57;100461.03;;;22.79;77.82
59435;BME280;45241;49.768;8.636;2022-10-26T12:29:25;100461.75;;;22.59;78.16
59435;BME280;45241;49.768;8.636;2022-10-26T12:31:50;100468.13;;;22.80;76.42
59435;BME280;45241;49.768;8.636;2022-10-26T12:39:40;100465.38;;;22.75;76.51
59435;BME280;45241;49.768;8.636;2022-10-26T12:44:35;100463.81;;;22.94;77.63
59435;BME280;45241;49.768;8.636;2022-10-26T12:47:01;100466.88;;;22.98;76.13
59435;BME280;45241;49.768;8.636;2022-10-26T12:52:18;100472.03;;;22.94;75.44
59435;BME280;45241;49.768;8.636;2022-10-26T12:54:47;100474.81;;;23.04;77.43
59435;BME280;45241;49.768;8.636;2022-10-26T12:59:45;100478.19;;;23.27;76.49
59435;BME280;45241;49.768;8.636;2022-10-26T13:02:21;100474.69;;;22.74;76.45
59435;BME280;45241;49.768;8.636;2022-10-26T13:07:37;100484.59;;;22.95;77.15
59435;BME280;45241;49.768;8.636;2022-10-26T13:10:04;100481.53;;;22.76;77.88
59435;BME280;45241;49.768;8.636;2022-10-26T13:13:04;100486.16;;;23.38;76.12
59435;BME280;45241;49.768;8.636;2022-10-26T13:15:28;100489.78;;;22.86;79.62
59435;BME280;45241;49.768;8.636;2022-10-26T13:17:55;100487.72;;;23.19;76.64
59435;BME280;45241;49.768;8.636;2022-10-26T13:20:21;100477.44;;;23.57;74.81
59435;BME280;45241;49.768;8.636;2022-10-26T13:22:46;100487.31;;;23.83;76.66
59435;BME280;45241;49.768;8.636;2022-10-26T13:25:15;100495.00;;;24.42;71.96
59435;BME280;45241;49.768;8.636;2022-10-26T13:27:43;100485.97;;;25.27;70.11
59435;BME280;45241;49.768;8.636;2022-10-26T13:30:11;100487.06;;;25.75;67.67
59435;BME280;45241;49.768;8.636;2022-10-26T13:32:41;100482.16;;;25.22;67.59
59435;BME280;45241;49.768;8.636;2022-10-26T13:35:13;100481.56;;;26.14;64.11
59435;BME280;45241;49.768;8.636;2022-10-26T13:37:40;100472.06;;;25.96;67.62
59435;BME280;45241;49.768;8.636;2022-10-26T13:40:07;100480.63;;;25.50;65.93
59435;BME280;45241;49.768;8.636;2022-10-26T13:42:36;100471.88;;;24.94;67.33
59435;BME280;45241;49.768;8.636;2022-10-26T13:45:06;100480.91;;;25.88;65.50
59435;BME280;45241;49.768;8.636;2022-10-26T13:47:37;100478.31;;;26.65;61.74
59435;BME280;45241;49.768;8.636;2022-10-26T13:50:04;100485.69;;;26.41;62.76
59435;BME280;45241;49.768;8.636;2022-10-26T13:52:35;100484.41;;;26.33;61.91
59435;BME280;45241;49.768;8.636;2022-10-26T14:00:20;100486.63;;;26.84;61.31
59435;BME280;45241;49.768;8.636;2022-10-26T14:02:45;100493.88;;;26.46;62.10
59435;BME280;45241;49.768;8.636;2022-10-26T14:05:12;100492.50;;;27.20;61.37
59435;BME280;45241;49.768;8.636;2022-10-26T14:07:43;100507.50;;;27.51;59.94
59435;BME280;45241;49.768;8.636;2022-10-26T14:10:28;100500.47;;;27.40;61.61
59435;BME280;45241;49.768;8.636;2022-10-26T14:12:54;100513.97;;;27.98;59.65
59435;BME280;45241;49.768;8.636;2022-10-26T14:15:22;100506.94;;;25.96;62.82
59435;BME280;45241;49.768;8.636;2022-10-26T14:17:49;100503.44;;;27.25;61.17
59435;BME280;45241;49.768;8.636;2022-10-26T14:20:18;100503.38;;;27.54;60.05
59435;BME280;45241;49.768;8.636;2022-10-26T14:22:44;100503.47;;;28.00;59.55